createdAt,value
2022-08-28T00:01:01.870Z,97725.84
2022-08-28T00:03:35.323Z,97726.09
2022-08-28T00:06:06.203Z,97730.88
2022-08-28T00:08:36.580Z,97728.66
2022-08-28T00:11:07.460Z,97739.22
2022-08-28T00:13:38.065Z,97726.47
2022-08-28T00:16:09.665Z,97726.94
2022-08-28T00:18:44.116Z,97734.47
2022-08-28T00:21:17.833Z,97732.28
2022-08-28T00:23:48.481Z,97727.59
2022-08-28T00:26:38.727Z,97739.34
2022-08-28T00:29:07.477Z,97737.19
2022-08-28T00:31:40.207Z,97733.06
2022-08-28T00:34:13.914Z,97738.84
2022-08-28T00:36:45.403Z,97733.00
2022-08-28T00:39:15.719Z,97734.81
2022-08-28T00:41:52.506Z,97749.88
2022-08-28T00:44:30.871Z,97738.84
2022-08-28T00:47:03.358Z,97738.84
2022-08-28T00:49:41.074Z,97732.78
2022-08-28T00:52:11.788Z,97738.31
2022-08-28T00:54:59.446Z,97734.13
2022-08-28T00:57:35.223Z,97727.22
2022-08-28T01:00:12.367Z,97730.81
2022-08-28T01:02:44.076Z,97718.06
2022-08-28T01:05:19.355Z,97720.78
2022-08-28T01:07:50.948Z,97725.78
2022-08-28T01:10:25.944Z,97722.88
2022-08-28T01:12:57.558Z,97722.13
2022-08-28T01:15:32.968Z,97721.22
2022-08-28T01:18:08.573Z,97717.56
2022-08-28T01:20:50.753Z,97718.88
2022-08-28T01:23:42.811Z,97720.91
2022-08-28T01:26:13.383Z,97732.69
2022-08-28T01:28:44.013Z,97731.47
2022-08-28T01:31:17.210Z,97728.34
2022-08-28T01:33:49.592Z,97740.34
2022-08-28T01:36:21.367Z,97734.81
2022-08-28T01:39:09.760Z,97742.63
2022-08-28T01:41:42.307Z,97750.22
2022-08-28T01:44:12.808Z,97735.16
2022-08-28T01:46:44.935Z,97743.50
2022-08-28T01:49:15.656Z,97740.25
2022-08-28T01:51:46.204Z,97745.66
2022-08-28T01:54:19.172Z,97741.25
2022-08-28T01:56:49.716Z,97744.97
2022-08-28T01:59:20.312Z,97754.72
2022-08-28T02:01:51.065Z,97750.28
2022-08-28T02:04:21.314Z,97754.53
2022-08-28T02:07:02.164Z,97761.28
2022-08-28T02:09:35.060Z,97750.06
2022-08-28T02:12:07.096Z,97759.25
2022-08-28T02:14:38.787Z,97760.44
2022-08-28T02:17:09.034Z,97762.19
2022-08-28T02:19:39.227Z,97765.44
2022-08-28T02:22:09.550Z,97767.06
2022-08-28T02:24:42.745Z,97768.59
2022-08-28T02:27:13.063Z,97769.34
2022-08-28T02:29:44.282Z,97769.44
2022-08-28T02:32:14.807Z,97766.63
2022-08-28T02:34:45.054Z,97770.56
2022-08-28T02:37:15.681Z,97774.06
2022-08-28T02:39:48.566Z,97764.63
2022-08-28T02:42:19.188Z,97765.09
2022-08-28T02:44:49.691Z,97760.25
2022-08-28T02:47:20.220Z,97763.81
2022-08-28T02:49:50.508Z,97762.66
2022-08-28T02:52:22.027Z,97764.50
2022-08-28T02:54:54.867Z,97760.69
2022-08-28T02:57:25.759Z,97761.22
2022-08-28T02:59:56.688Z,97762.31
2022-08-28T03:02:26.948Z,97767.41
2022-08-28T03:04:57.349Z,97767.69
2022-08-28T03:07:28.052Z,97768.19
2022-08-28T03:10:00.673Z,97759.34
2022-08-28T03:12:31.023Z,97749.78
2022-08-28T03:15:01.202Z,97757.88
2022-08-28T03:17:31.964Z,97759.13
2022-08-28T03:20:01.914Z,97755.91
2022-08-28T03:22:44.459Z,97762.81
2022-08-28T03:25:17.872Z,97756.69
2022-08-28T03:27:48.139Z,97761.84
2022-08-28T03:30:19.552Z,97763.72
2022-08-28T03:32:49.996Z,97758.88
2022-08-28T03:35:21.990Z,97764.81
2022-08-28T03:37:52.182Z,97767.88
2022-08-28T03:40:25.367Z,97764.59
2022-08-28T03:42:55.815Z,97773.63
2022-08-28T03:45:26.022Z,97771.13
2022-08-28T03:47:57.067Z,97777.75
2022-08-28T03:50:28.960Z,97777.25
2022-08-28T03:52:59.843Z,97769.59
2022-08-28T03:55:32.659Z,97772.63
2022-08-28T03:58:04.595Z,97778.31
2022-08-28T04:00:36.306Z,97778.59
2022-08-28T04:03:06.939Z,97783.97
2022-08-28T04:05:37.736Z,97783.97
2022-08-28T04:08:08.126Z,97787.84
2022-08-28T04:10:41.339Z,97785.09
2022-08-28T04:13:11.767Z,97783.88
2022-08-28T04:15:42.039Z,97788.06
2022-08-28T04:18:13.479Z,97793.50
2022-08-28T04:20:46.418Z,97791.97
2022-08-28T04:23:16.728Z,97789.06
2022-08-28T04:25:49.470Z,97786.31
2022-08-28T04:28:19.790Z,97798.81
2022-08-28T04:30:49.981Z,97787.84
2022-08-28T04:33:20.173Z,97796.75
2022-08-28T04:35:50.459Z,97797.81
2022-08-28T04:38:21.339Z,97796.06
2022-08-28T04:40:54.128Z,97809.91
2022-08-28T04:43:24.370Z,97813.53
2022-08-28T04:45:56.396Z,97815.28
2022-08-28T04:48:26.742Z,97817.56
2022-08-28T04:50:56.918Z,97815.03
2022-08-28T04:53:27.488Z,97812.13
2022-08-28T04:56:00.810Z,97811.91
2022-08-28T04:58:32.347Z,97820.06
2022-08-28T05:01:08.399Z,97822.59
2022-08-28T05:03:39.252Z,97819.75
2022-08-28T05:06:10.160Z,97820.19
2022-08-28T05:08:40.343Z,97814.53
2022-08-28T05:11:22.105Z,97824.41
2022-08-28T05:14:06.537Z,97825.69
2022-08-28T05:16:43.093Z,97828.84
2022-08-28T05:19:13.441Z,97830.72
2022-08-28T05:21:44.195Z,97838.16
2022-08-28T05:24:14.565Z,97837.34
2022-08-28T05:26:48.201Z,97840.44
2022-08-28T05:29:19.593Z,97851.16
2022-08-28T05:31:50.055Z,97846.88
2022-08-28T05:34:20.869Z,97846.44
2022-08-28T05:36:50.823Z,97853.13
2022-08-28T05:39:21.334Z,97858.44
2022-08-28T05:41:54.143Z,97858.97
2022-08-28T05:44:24.376Z,97864.34
2022-08-28T05:46:54.736Z,97864.59
2022-08-28T05:49:25.253Z,97861.50
2022-08-28T05:51:55.479Z,97866.38
2022-08-28T05:54:25.772Z,97868.19
2022-08-28T05:56:59.034Z,97872.75
2022-08-28T05:59:29.194Z,97870.91
2022-08-28T06:02:03.623Z,97876.69
2022-08-28T06:04:35.677Z,97876.22
2022-08-28T06:07:08.216Z,97883.59
2022-08-28T06:09:38.498Z,97880.25
2022-08-28T06:12:12.729Z,97885.81
2022-08-28T06:14:44.976Z,97886.78
2022-08-28T06:17:15.173Z,97882.91
2022-08-28T06:19:45.425Z,97888.78
2022-08-28T06:22:15.612Z,97891.06
2022-08-28T06:24:45.727Z,97892.63
2022-08-28T06:27:19.086Z,97894.13
2022-08-28T06:29:49.288Z,97889.34
2022-08-28T06:32:19.493Z,97898.56
2022-08-28T06:34:49.702Z,97899.06
2022-08-28T06:37:19.929Z,97901.41
2022-08-28T06:39:50.081Z,97901.16
2022-08-28T06:42:23.144Z,97896.78
2022-08-28T06:44:53.294Z,97904.38
2022-08-28T06:47:23.745Z,97902.22
2022-08-28T06:49:54.598Z,97907.88
2022-08-28T06:52:24.816Z,97913.50
2022-08-28T06:54:55.838Z,97913.75
2022-08-28T06:57:28.910Z,97923.19
2022-08-28T06:59:59.444Z,97923.22
2022-08-28T07:02:29.762Z,97928.03
2022-08-28T07:05:00.588Z,97928.03
2022-08-28T07:07:32.375Z,97928.59
2022-08-28T07:10:03.051Z,97930.38
2022-08-28T07:12:35.827Z,97934.69
2022-08-28T07:15:06.724Z,97920.13
2022-08-28T07:17:36.986Z,97923.38
2022-08-28T07:20:08.319Z,97922.81
2022-08-28T07:22:40.929Z,97931.00
2022-08-28T07:25:13.008Z,97928.44
2022-08-28T07:27:45.802Z,97920.25
2022-08-28T07:30:17.176Z,97920.25
2022-08-28T07:32:49.344Z,97930.47
2022-08-28T07:35:21.050Z,97918.44
2022-08-28T07:37:51.877Z,97925.53
2022-08-28T07:40:22.479Z,97922.72
2022-08-28T07:43:07.754Z,97934.47
2022-08-28T07:45:38.131Z,97919.97
2022-08-28T07:48:11.634Z,97930.44
2022-08-28T07:50:42.052Z,97927.31
2022-08-28T07:53:12.635Z,97936.44
2022-08-28T07:55:42.796Z,97928.13
2022-08-28T07:58:16.354Z,97925.81
2022-08-28T08:00:46.566Z,97932.06
2022-08-28T08:03:16.982Z,97928.69
2022-08-28T08:05:55.955Z,97934.59
2022-08-28T08:08:26.831Z,97938.19
2022-08-28T08:11:03.107Z,97939.97
2022-08-28T08:13:40.736Z,97936.78
2022-08-28T08:16:15.053Z,97944.75
2022-08-28T08:18:45.946Z,97942.25
2022-08-28T08:21:19.258Z,97943.47
2022-08-28T08:23:50.684Z,97943.94
2022-08-28T08:26:23.790Z,97946.34
2022-08-28T08:28:56.922Z,97958.22
2022-08-28T08:31:32.500Z,97950.19
2022-08-28T08:34:06.663Z,97961.09
2022-08-28T08:36:39.205Z,97956.81
2022-08-28T08:39:11.013Z,97961.44
2022-08-28T08:41:48.382Z,97959.09
2022-08-28T08:44:33.508Z,97957.28
2022-08-28T08:47:15.140Z,97956.44
2022-08-28T08:49:54.062Z,97951.19
2022-08-28T08:52:37.569Z,97959.19
2022-08-28T08:55:27.209Z,97961.56
2022-08-28T08:58:06.662Z,97954.91
2022-08-28T09:00:48.877Z,97960.91
2022-08-28T09:03:27.713Z,97948.91
2022-08-28T09:06:03.415Z,97959.97
2022-08-28T09:08:39.963Z,97964.25
2022-08-28T09:11:26.280Z,97956.84
2022-08-28T09:14:04.889Z,97957.59
2022-08-28T09:16:41.732Z,97956.28
2022-08-28T09:19:16.169Z,97958.50
2022-08-28T09:21:48.817Z,97959.75
2022-08-28T09:24:29.235Z,97965.63
2022-08-28T09:27:03.620Z,97949.53
2022-08-28T09:29:37.769Z,97957.66
2022-08-28T09:32:26.523Z,97959.03
2022-08-28T09:35:22.065Z,97955.28
2022-08-28T09:37:52.245Z,97963.94
2022-08-28T09:40:48.337Z,97960.69
2022-08-28T09:43:30.244Z,97967.66
2022-08-28T09:46:04.654Z,97978.41
2022-08-28T09:48:41.255Z,97974.72
2022-08-28T09:51:13.877Z,97969.38
2022-08-28T09:53:59.761Z,97971.44
2022-08-28T09:56:34.102Z,97973.34
2022-08-28T09:59:09.455Z,97982.84
2022-08-28T10:02:03.252Z,97981.06
2022-08-28T10:05:00.252Z,97984.25
2022-08-28T10:07:41.958Z,97980.78
2022-08-28T10:10:34.847Z,97981.94
2022-08-28T10:13:14.721Z,97986.81
2022-08-28T10:16:05.007Z,97989.69
2022-08-28T10:18:46.730Z,97990.56
2022-08-28T10:21:27.356Z,97984.53
2022-08-28T10:24:26.078Z,97991.44
2022-08-28T10:27:07.600Z,97985.03
2022-08-28T10:29:51.644Z,97987.25
2022-08-28T10:33:03.901Z,97992.97
2022-08-28T10:35:49.569Z,97998.78
2022-08-28T10:38:33.825Z,98004.69
2022-08-28T10:41:12.230Z,97999.13
2022-08-28T10:43:48.859Z,98001.09
2022-08-28T10:46:27.225Z,98001.00
2022-08-28T10:49:05.100Z,97994.06
2022-08-28T10:51:43.599Z,97994.19
2022-08-28T10:54:26.409Z,97990.84
2022-08-28T10:57:03.242Z,97993.44
2022-08-28T10:59:42.175Z,97988.66
2022-08-28T11:02:16.632Z,97989.75
2022-08-28T11:04:50.401Z,97989.53
2022-08-28T11:07:31.345Z,97990.78
2022-08-28T11:10:22.749Z,97989.53
2022-08-28T11:12:55.023Z,97991.81
2022-08-28T11:15:56.286Z,97989.44
2022-08-28T11:18:57.820Z,97995.63
2022-08-28T11:21:32.248Z,97998.25
2022-08-28T11:24:10.052Z,98001.50
2022-08-28T11:26:59.450Z,98001.13
2022-08-28T11:30:06.616Z,98004.66
2022-08-28T11:32:59.415Z,98003.50
2022-08-28T11:35:48.514Z,97998.69
2022-08-28T11:39:15.214Z,98011.56
2022-08-28T11:42:39.436Z,98012.44
2022-08-28T11:45:22.624Z,98003.00
2022-08-28T11:47:59.481Z,98006.38
2022-08-28T11:50:36.707Z,98006.69
2022-08-28T11:53:46.682Z,97998.78
2022-08-28T11:56:51.734Z,98001.94
2022-08-28T11:59:53.335Z,97996.81
2022-08-28T12:02:51.179Z,97999.94
2022-08-28T12:05:54.901Z,98006.19
2022-08-28T12:09:13.444Z,98001.72
2022-08-28T12:12:04.366Z,97997.06
2022-08-28T12:15:07.827Z,97993.66
2022-08-28T12:17:53.888Z,98004.75
2022-08-28T12:21:01.796Z,97992.38
2022-08-28T12:23:45.117Z,97989.44
2022-08-28T12:26:27.407Z,97989.31
2022-08-28T12:29:01.453Z,97987.34
2022-08-28T12:32:18.839Z,97981.53
2022-08-28T12:35:21.085Z,97976.41
2022-08-28T12:38:05.056Z,97984.19
2022-08-28T12:40:50.646Z,97987.84
2022-08-28T12:43:35.808Z,97989.81
2022-08-28T12:46:18.895Z,97992.66
2022-08-28T12:48:59.561Z,97988.94
2022-08-28T12:51:35.812Z,97987.25
2022-08-28T12:54:09.054Z,97989.44
2022-08-28T12:56:41.883Z,97985.41
2022-08-28T12:59:35.296Z,97980.75
2022-08-28T13:02:07.036Z,97987.34
2022-08-28T13:04:41.084Z,97981.53
2022-08-28T13:07:16.977Z,97978.56
2022-08-28T13:09:52.074Z,97972.69
2022-08-28T13:12:31.978Z,97978.41
2022-08-28T13:16:01.633Z,97968.09
2022-08-28T13:18:56.636Z,97975.72
2022-08-28T13:21:39.276Z,97968.94
2022-08-28T13:24:43.703Z,97969.22
2022-08-28T13:27:25.471Z,97970.75
2022-08-28T13:30:04.659Z,97966.75
2022-08-28T13:32:42.006Z,97963.38
2022-08-28T13:35:37.473Z,97952.34
2022-08-28T13:38:11.950Z,97959.06
2022-08-28T13:40:58.799Z,97954.72
2022-08-28T13:43:32.827Z,97952.47
2022-08-28T13:46:03.032Z,97948.69
2022-08-28T13:48:35.856Z,97944.91
2022-08-28T13:51:10.726Z,97942.22
2022-08-28T13:53:42.850Z,97941.75
2022-08-28T13:56:13.472Z,97936.69
2022-08-28T13:58:43.871Z,97939.75
2022-08-28T14:01:44.920Z,97941.25
2022-08-28T14:04:15.332Z,97938.63
2022-08-28T14:06:45.710Z,97935.34
2022-08-28T14:09:17.684Z,97931.28
2022-08-28T14:11:49.786Z,97937.78
2022-08-28T14:14:20.703Z,97929.63
2022-08-28T14:16:51.683Z,97938.81
2022-08-28T14:19:25.878Z,97928.22
2022-08-28T14:21:56.350Z,97927.59
2022-08-28T14:24:27.201Z,97929.16
2022-08-28T14:26:58.673Z,97930.44
2022-08-28T14:29:29.094Z,97926.63
2022-08-28T14:31:59.881Z,97931.00
2022-08-28T14:34:34.866Z,97931.50
2022-08-28T14:37:05.104Z,97927.44
2022-08-28T14:39:35.904Z,97928.47
2022-08-28T14:42:13.083Z,97939.78
2022-08-28T14:44:43.566Z,97932.78
2022-08-28T14:47:14.716Z,97937.03
2022-08-28T14:49:47.704Z,97936.38
2022-08-28T14:52:19.503Z,97933.88
2022-08-28T14:54:49.751Z,97928.78
2022-08-28T14:57:20.054Z,97927.25
2022-08-28T14:59:50.285Z,97922.84
2022-08-28T15:02:20.448Z,97925.63
2022-08-28T15:04:53.304Z,97920.59
2022-08-28T15:07:23.940Z,97927.78
2022-08-28T15:09:55.096Z,97929.31
2022-08-28T15:12:25.847Z,97923.53
2022-08-28T15:14:57.239Z,97925.00
2022-08-28T15:17:33.952Z,97923.75
2022-08-28T15:20:09.174Z,97924.47
2022-08-28T15:22:39.436Z,97922.81
2022-08-28T15:25:10.863Z,97921.91
2022-08-28T15:27:41.569Z,97927.59
2022-08-28T15:30:13.867Z,97919.34
2022-08-28T15:32:46.240Z,97921.97
2022-08-28T15:35:19.292Z,97911.53
2022-08-28T15:37:49.518Z,97922.31
2022-08-28T15:40:32.434Z,97925.94
2022-08-28T15:43:02.720Z,97918.44
2022-08-28T15:45:33.028Z,97933.63
2022-08-28T15:48:03.266Z,97924.91
2022-08-28T15:50:36.396Z,97921.16
2022-08-28T15:53:07.913Z,97916.34
2022-08-28T15:55:38.133Z,97917.84
2022-08-28T15:58:08.832Z,97917.19
2022-08-28T16:00:44.951Z,97924.91
2022-08-28T16:03:15.696Z,97918.50
2022-08-28T16:05:49.701Z,97928.94
2022-08-28T16:08:19.958Z,97924.16
2022-08-28T16:10:51.726Z,97931.81
2022-08-28T16:13:23.832Z,97919.63
2022-08-28T16:15:54.133Z,97926.03
2022-08-28T16:18:24.300Z,97928.22
2022-08-28T16:20:59.521Z,97927.06
2022-08-28T16:23:31.725Z,97929.56
2022-08-28T16:26:02.676Z,97936.03
2022-08-28T16:28:32.950Z,97925.31
2022-08-28T16:31:07.431Z,97928.72
2022-08-28T16:33:38.479Z,97924.38
2022-08-28T16:36:16.903Z,97924.19
2022-08-28T16:39:00.469Z,97927.22
2022-08-28T16:41:34.975Z,97927.19
2022-08-28T16:44:05.900Z,97929.25
2022-08-28T16:46:36.348Z,97927.50
2022-08-28T16:49:07.002Z,97920.13
2022-08-28T16:51:40.508Z,97932.34
2022-08-28T16:54:10.794Z,97930.75
2022-08-28T16:56:41.124Z,97935.63
2022-08-28T16:59:11.406Z,97939.78
2022-08-28T17:01:42.635Z,97934.09
2022-08-28T17:04:13.692Z,97941.88
2022-08-28T17:06:47.628Z,97939.38
2022-08-28T17:09:20.953Z,97938.16
2022-08-28T17:11:52.157Z,97934.56
2022-08-28T17:14:23.123Z,97934.34
2022-08-28T17:16:54.931Z,97937.38
2022-08-28T17:19:25.376Z,97945.66
2022-08-28T17:22:10.642Z,97944.28
2022-08-28T17:24:40.925Z,97943.50
2022-08-28T17:27:11.324Z,97936.25
2022-08-28T17:29:41.610Z,97944.88
2022-08-28T17:32:14.670Z,97939.13
2022-08-28T17:34:45.141Z,97944.53
2022-08-28T17:37:18.039Z,97946.88
2022-08-28T17:39:48.283Z,97950.91
2022-08-28T17:42:18.586Z,97949.34
2022-08-28T17:44:48.789Z,97952.97
2022-08-28T17:47:26.278Z,97955.16
2022-08-28T17:50:01.782Z,97958.00
2022-08-28T17:52:35.439Z,97957.91
2022-08-28T17:55:06.725Z,97957.81
2022-08-28T17:57:36.910Z,97959.25
2022-08-28T18:00:10.957Z,97957.75
2022-08-28T18:02:44.422Z,97966.66
2022-08-28T18:05:16.777Z,97962.56
2022-08-28T18:07:49.839Z,97966.34
2022-08-28T18:10:20.000Z,97970.13
2022-08-28T18:12:50.530Z,97975.22
2022-08-28T18:15:20.784Z,97974.09
2022-08-28T18:17:50.952Z,97986.31
2022-08-28T18:20:22.329Z,97985.00
2022-08-28T18:22:55.520Z,97981.06
2022-08-28T18:25:50.795Z,97988.63
2022-08-28T18:28:25.181Z,97991.38
2022-08-28T18:30:56.027Z,97996.31
2022-08-28T18:33:27.434Z,97994.75
2022-08-28T18:35:57.690Z,97990.50
2022-08-28T18:38:35.086Z,97997.25
2022-08-28T18:41:06.060Z,97991.28
2022-08-28T18:43:36.733Z,97997.56
2022-08-28T18:46:09.364Z,98006.59
2022-08-28T18:48:40.761Z,98007.22
2022-08-28T18:51:13.563Z,98019.06
2022-08-28T18:53:46.514Z,98023.97
2022-08-28T18:56:19.242Z,98017.63
2022-08-28T18:58:51.912Z,98030.47
2022-08-28T19:01:22.220Z,98035.91
2022-08-28T19:03:52.601Z,98025.03
2022-08-28T19:06:22.936Z,98023.78
2022-08-28T19:08:55.914Z,98034.56
2022-08-28T19:11:26.117Z,98029.06
2022-08-28T19:13:56.271Z,98040.56
2022-08-28T19:16:26.475Z,98042.41
2022-08-28T19:18:56.663Z,98036.06
2022-08-28T19:21:27.538Z,98048.34
2022-08-28T19:24:01.100Z,98045.81
2022-08-28T19:26:32.065Z,98051.50
2022-08-28T19:29:03.128Z,98046.16
2022-08-28T19:31:35.919Z,98055.63
2022-08-28T19:34:07.769Z,98044.91
2022-08-28T19:36:38.804Z,98056.69
2022-08-28T19:39:11.723Z,98052.38
2022-08-28T19:41:43.704Z,98058.50
2022-08-28T19:44:14.190Z,98059.81
2022-08-28T19:46:44.763Z,98061.63
2022-08-28T19:49:15.121Z,98071.06
2022-08-28T19:51:45.390Z,98057.34
2022-08-28T19:54:18.297Z,98067.06
2022-08-28T19:56:48.472Z,98066.56
2022-08-28T19:59:18.732Z,98062.00
2022-08-28T20:01:49.027Z,98064.34
2022-08-28T20:04:19.644Z,98064.09
2022-08-28T20:06:50.104Z,98069.22
2022-08-28T20:09:23.036Z,98067.22
2022-08-28T20:11:53.248Z,98080.97
2022-08-28T20:14:24.545Z,98072.84
2022-08-28T20:16:55.467Z,98078.97
2022-08-28T20:19:25.760Z,98079.22
2022-08-28T20:21:55.938Z,98076.72
2022-08-28T20:24:29.216Z,98074.97
2022-08-28T20:26:59.687Z,98081.59
2022-08-28T20:29:30.215Z,98072.69
2022-08-28T20:32:00.866Z,98075.25
2022-08-28T20:34:32.076Z,98079.81
2022-08-28T20:37:02.464Z,98068.63
2022-08-28T20:39:37.171Z,98084.94
2022-08-28T20:42:07.721Z,98079.13
2022-08-28T20:44:38.294Z,98087.53
2022-08-28T20:47:09.635Z,98084.97
2022-08-28T20:49:39.747Z,98090.06
2022-08-28T20:52:10.298Z,98087.00
2022-08-28T20:54:44.880Z,98080.91
2022-08-28T20:57:18.635Z,98081.16
2022-08-28T20:59:50.263Z,98085.78
2022-08-28T21:02:23.461Z,98090.88
2022-08-28T21:04:55.257Z,98089.88
2022-08-28T21:07:28.058Z,98096.25
2022-08-28T21:10:07.157Z,98089.38
2022-08-28T21:12:38.921Z,98101.09
2022-08-28T21:15:12.593Z,98101.84
2022-08-28T21:17:43.077Z,98099.81
2022-08-28T21:20:17.498Z,98106.94
2022-08-28T21:22:48.496Z,98113.84
2022-08-28T21:25:25.885Z,98120.47
2022-08-28T21:27:56.353Z,98113.31
2022-08-28T21:30:29.680Z,98122.00
2022-08-28T21:33:00.136Z,98112.34
2022-08-28T21:35:30.442Z,98123.53
2022-08-28T21:38:00.679Z,98125.06
2022-08-28T21:40:35.341Z,98116.91
2022-08-28T21:43:05.795Z,98121.00
2022-08-28T21:45:36.604Z,98118.47
2022-08-28T21:48:06.969Z,98117.19
2022-08-28T21:50:37.213Z,98118.97
2022-08-28T21:53:07.450Z,98117.94
2022-08-28T21:55:40.278Z,98118.19
2022-08-28T21:58:11.967Z,98122.28
2022-08-28T22:00:42.198Z,98125.34
2022-08-28T22:03:12.375Z,98128.41
2022-08-28T22:05:45.735Z,98132.19
2022-08-28T22:08:17.399Z,98132.47
2022-08-28T22:10:50.274Z,98135.00
2022-08-28T22:13:21.023Z,98131.16
2022-08-28T22:15:51.226Z,98130.41
2022-08-28T22:18:21.719Z,98139.81
2022-08-28T22:21:14.660Z,98139.81
2022-08-28T22:23:45.113Z,98144.41
2022-08-28T22:26:21.456Z,98142.13
2022-08-28T22:28:51.758Z,98141.81
2022-08-28T22:31:22.041Z,98137.50
2022-08-28T22:33:52.653Z,98137.00
2022-08-28T22:36:24.377Z,98142.09
2022-08-28T22:38:59.765Z,98141.06
2022-08-28T22:41:33.109Z,98138.75
2022-08-28T22:44:03.678Z,98143.34
2022-08-28T22:46:33.879Z,98138.75
2022-08-28T22:49:04.056Z,98150.69
2022-08-28T22:51:37.336Z,98133.16
2022-08-28T22:54:08.760Z,98146.13
2022-08-28T22:56:42.256Z,98149.44
2022-08-28T22:59:12.751Z,98148.91
2022-08-28T23:01:44.587Z,98149.69
2022-08-28T23:04:16.125Z,98151.44
2022-08-28T23:06:46.452Z,98158.03
2022-08-28T23:09:16.679Z,98161.38
2022-08-28T23:11:50.077Z,98158.28
2022-08-28T23:14:20.873Z,98159.81
2022-08-28T23:16:50.955Z,98152.19
2022-08-28T23:19:21.618Z,98158.00
2022-08-28T23:21:52.480Z,98157.00
2022-08-28T23:24:22.917Z,98158.75
2022-08-28T23:26:55.784Z,98155.94
2022-08-28T23:29:26.211Z,98151.63
2022-08-28T23:31:56.423Z,98155.44
2022-08-28T23:34:28.431Z,98160.28
2022-08-28T23:36:58.714Z,98156.22
2022-08-28T23:39:29.148Z,98154.41
2022-08-28T23:42:03.210Z,98160.50
2022-08-28T23:44:33.688Z,98159.19
2022-08-28T23:47:04.140Z,98167.34
2022-08-28T23:49:35.538Z,98169.88
2022-08-28T23:52:14.360Z,98168.81
2022-08-28T23:54:44.597Z,98166.81
2022-08-28T23:57:18.077Z,98170.34
2022-08-28T23:59:48.381Z,98173.41
